Hiroshima Airport, Japan

7:36 AM JST on September 01, 2016 (GMT +0900)
Hiroshima | | Change Station

Elev 1096 ft 34.44 °N, 132.92 °E | Updated 36 minutes ago

Partly Cloudy
Partly Cloudy
72 °F
Feels Like 72 °F
N
2
Wind Variable Wind from Variable

Today
High -- | Low -- °F
--% Chance of Precip.
Yesterday
High -- | Low -- °F
Precip. -- in
Pressure 29.77 in
Visibility 6.2 miles
Clouds Few 1500 ft
Dew Point 64 °F
Humidity 78%
Rainfall 0.00 in
Snow Depth Not available.
5:41 AM 6:34 PM
Waning Crescent, 0% visible
METAR RJOA 312200Z VRB02KT 9999 FEW015 BKN/// 22/18 Q1008
Pressure 29.77 in
Visibility 6.2 miles
Clouds Few 1500 ft
Dew Point 64 °F
Humidity 78%
Rainfall 0.00 in
Snow Depth Not available.
5:41 AM 6:34 PM
Waning Crescent, 0% visible
METAR RJOA 312200Z VRB02KT 9999 FEW015 BKN/// 22/18 Q1008

10-Day Weather Forecast

No radar image for this location.
×

Almanac

Astronomy

Sep. 01, 2016 Rise Set
Actual Time
Civil Twilight
Nautical Twilight
Astronomical Twilight
Moon
Length of Visible Light
Length of Day
Tomorrow will be .
, % of the Moon is Illuminated

Today's Extremes

Country Highs Country Lows

Community

WunderPhotos

Upload Photos

1,936,203 photos uploaded!

WunderBlog® & News

Nearby

Air Quality

  Air Quality AQ Index Pollutant
Not available.

Snow Depth

Station Depth Elevation

Earthquake Activity

City Distance Mag. Time & Date
Minimum magnitude displayed is 2.5.

Coastal Water Temperatures

Place Temperature

Stations

Nearby Weather Stations

Station Location Temp. Windchill Dew Point Humidity Wind Precip. Elev Updated Type